createdAt,value
2019-01-06T00:00:53.125Z,8.70
2019-01-06T00:03:49.876Z,7.80
2019-01-06T00:06:39.395Z,8.13
2019-01-06T00:09:39.524Z,6.23
2019-01-06T00:12:29.099Z,7.87
2019-01-06T00:15:19.482Z,8.07
2019-01-06T00:18:12.419Z,7.23
2019-01-06T00:21:06.000Z,6.90
2019-01-06T00:24:15.332Z,9.70
2019-01-06T00:27:05.224Z,12.97
2019-01-06T00:30:08.236Z,13.07
2019-01-06T00:32:58.011Z,11.40
2019-01-06T00:35:54.856Z,9.50
2019-01-06T00:38:48.289Z,11.00
2019-01-06T00:41:37.902Z,12.70
2019-01-06T00:44:27.786Z,12.43
2019-01-06T00:47:19.779Z,13.47
2019-01-06T00:50:22.903Z,13.23
2019-01-06T00:53:30.223Z,11.93
2019-01-06T00:56:24.702Z,12.27
2019-01-06T00:59:24.613Z,12.53
2019-01-06T01:02:16.088Z,12.20
2019-01-06T01:05:05.471Z,14.33
2019-01-06T01:08:02.364Z,12.53
2019-01-06T01:11:06.063Z,13.23
2019-01-06T01:13:55.116Z,13.00
2019-01-06T01:16:58.333Z,11.87
2019-01-06T01:19:50.427Z,10.27
2019-01-06T01:22:47.503Z,10.80
2019-01-06T01:25:39.337Z,12.67
2019-01-06T01:28:33.672Z,11.73
2019-01-06T01:31:24.928Z,11.73
2019-01-06T01:34:14.940Z,12.07
2019-01-06T01:37:03.611Z,11.63
2019-01-06T01:40:03.805Z,12.43
2019-01-06T01:43:01.479Z,11.57
2019-01-06T01:45:58.653Z,14.03
2019-01-06T01:48:47.944Z,13.30
2019-01-06T01:51:38.064Z,13.57
2019-01-06T01:54:35.061Z,14.07
2019-01-06T01:57:41.531Z,14.37
2019-01-06T02:00:35.492Z,11.83
2019-01-06T02:03:22.793Z,14.30
2019-01-06T02:06:22.918Z,14.33
2019-01-06T02:09:11.596Z,13.03
2019-01-06T02:12:03.874Z,13.80
2019-01-06T02:14:58.182Z,13.97
2019-01-06T02:17:48.504Z,11.67
2019-01-06T02:20:40.618Z,13.90
2019-01-06T02:23:31.577Z,9.30
2019-01-06T02:26:38.953Z,7.10
2019-01-06T02:29:32.637Z,12.07
2019-01-06T02:32:24.291Z,10.60
2019-01-06T02:35:15.463Z,11.07
2019-01-06T02:38:10.259Z,8.77
2019-01-06T02:41:07.737Z,10.17
2019-01-06T02:43:51.760Z,12.33
2019-01-06T02:46:39.991Z,12.80
2019-01-06T02:49:34.845Z,15.60
2019-01-06T02:52:31.938Z,15.00
2019-01-06T02:55:29.701Z,13.70
2019-01-06T02:58:27.251Z,16.47
2019-01-06T03:01:21.562Z,18.50
2019-01-06T03:04:11.175Z,17.17
2019-01-06T03:07:05.545Z,17.53
2019-01-06T03:10:33.248Z,17.37
2019-01-06T03:13:21.894Z,18.57
2019-01-06T03:16:16.118Z,20.93
2019-01-06T03:19:19.069Z,20.60
2019-01-06T03:22:15.670Z,20.57
2019-01-06T03:25:08.395Z,20.73
2019-01-06T03:28:05.508Z,19.60
2019-01-06T03:31:02.565Z,21.50
2019-01-06T03:33:51.767Z,21.00
2019-01-06T03:36:42.336Z,18.50
2019-01-06T03:39:36.062Z,20.23
2019-01-06T03:42:36.186Z,25.77
2019-01-06T03:45:30.005Z,21.73
2019-01-06T03:48:19.327Z,20.60
2019-01-06T03:51:09.892Z,20.57
2019-01-06T03:54:00.455Z,20.83
2019-01-06T03:56:39.835Z,21.27
2019-01-06T03:59:33.997Z,20.50
2019-01-06T04:02:24.560Z,21.00
2019-01-06T04:05:19.349Z,21.17
2019-01-06T04:08:08.101Z,20.53
2019-01-06T04:11:05.143Z,20.60
2019-01-06T04:14:13.304Z,20.53
2019-01-06T04:17:19.759Z,20.50
2019-01-06T04:20:06.475Z,20.40
2019-01-06T04:23:15.599Z,20.23
2019-01-06T04:26:16.230Z,20.67
2019-01-06T04:29:06.090Z,19.60
2019-01-06T04:31:56.585Z,19.87
2019-01-06T04:34:56.857Z,19.80
2019-01-06T04:37:45.477Z,20.03
2019-01-06T04:40:36.820Z,20.23
2019-01-06T04:43:30.939Z,20.23
2019-01-06T04:46:22.025Z,19.90
2019-01-06T04:49:18.547Z,19.57
2019-01-06T04:52:17.644Z,18.80
2019-01-06T04:55:07.100Z,20.50
2019-01-06T04:57:56.270Z,19.50
2019-01-06T05:01:05.653Z,19.83
2019-01-06T05:03:55.276Z,18.23
2019-01-06T05:06:44.209Z,19.33
2019-01-06T05:09:40.292Z,20.23
2019-01-06T05:12:30.283Z,19.37
2019-01-06T05:15:18.538Z,20.63
2019-01-06T05:18:08.021Z,21.03
2019-01-06T05:21:10.730Z,21.70
2019-01-06T05:24:15.042Z,20.50
2019-01-06T05:27:01.944Z,19.90
2019-01-06T05:30:05.113Z,21.43
2019-01-06T05:32:55.250Z,20.70
2019-01-06T05:35:50.776Z,19.80
2019-01-06T05:38:43.847Z,21.17
2019-01-06T05:41:38.098Z,21.53
2019-01-06T05:44:32.047Z,20.60
2019-01-06T05:47:21.167Z,20.57
2019-01-06T05:50:14.553Z,19.50
2019-01-06T05:53:11.197Z,20.47
2019-01-06T05:56:01.134Z,20.93
2019-01-06T05:58:57.915Z,19.83
2019-01-06T06:01:48.647Z,20.83
2019-01-06T06:04:57.781Z,19.37
2019-01-06T06:07:44.840Z,18.80
2019-01-06T06:10:33.987Z,20.73
2019-01-06T06:13:23.411Z,20.03
2019-01-06T06:16:12.710Z,21.33
2019-01-06T06:19:08.467Z,19.70
2019-01-06T06:22:16.147Z,21.53
2019-01-06T06:25:04.342Z,19.73
2019-01-06T06:28:03.027Z,21.23
2019-01-06T06:30:55.355Z,19.03
2019-01-06T06:33:54.238Z,20.87
2019-01-06T06:36:45.359Z,20.47
2019-01-06T06:39:33.624Z,20.13
2019-01-06T06:42:21.736Z,30.00
2019-01-06T06:45:11.225Z,35.73
2019-01-06T06:48:00.666Z,39.53
2019-01-06T06:50:48.581Z,37.80
2019-01-06T06:53:36.732Z,36.63
2019-01-06T06:56:26.208Z,31.10
2019-01-06T06:59:14.266Z,28.87
2019-01-06T07:02:36.737Z,30.37
2019-01-06T07:05:27.906Z,30.33
2019-01-06T07:08:15.799Z,33.27
2019-01-06T07:11:07.968Z,35.50
2019-01-06T07:14:06.492Z,34.83
2019-01-06T07:17:28.575Z,35.03
2019-01-06T07:20:17.958Z,36.77
2019-01-06T07:23:10.488Z,37.90
2019-01-06T07:26:14.806Z,37.87
2019-01-06T07:29:16.544Z,34.80
2019-01-06T07:32:18.117Z,36.90
2019-01-06T07:35:06.454Z,36.63
2019-01-06T07:38:01.587Z,35.07
2019-01-06T07:40:57.087Z,36.33
2019-01-06T07:44:07.791Z,34.87
2019-01-06T07:46:57.318Z,34.03
2019-01-06T07:49:36.308Z,31.90
2019-01-06T07:52:28.990Z,31.03
2019-01-06T07:55:18.406Z,28.80
2019-01-06T07:58:06.927Z,29.83
2019-01-06T08:00:54.909Z,22.93
2019-01-06T08:03:50.152Z,23.00
2019-01-06T08:06:51.889Z,23.87
2019-01-06T08:09:39.943Z,21.67
2019-01-06T08:12:34.342Z,23.20
2019-01-06T08:15:26.893Z,11.23
2019-01-06T08:18:25.348Z,8.47
2019-01-06T08:21:13.352Z,5.60
2019-01-06T08:24:01.404Z,6.50
2019-01-06T08:26:49.587Z,7.00
2019-01-06T08:29:40.571Z,5.37
2019-01-06T08:32:38.961Z,5.27
2019-01-06T08:35:28.398Z,5.30
2019-01-06T08:38:20.873Z,7.80
2019-01-06T08:41:11.478Z,5.97
2019-01-06T08:43:59.840Z,5.07
2019-01-06T08:46:48.047Z,6.27
2019-01-06T08:49:40.366Z,5.27
2019-01-06T08:52:33.100Z,6.23
2019-01-06T08:55:21.709Z,6.20
2019-01-06T08:58:29.262Z,7.37
2019-01-06T09:01:24.407Z,4.80
2019-01-06T09:04:15.580Z,8.80
2019-01-06T09:07:18.320Z,16.00
2019-01-06T09:10:06.375Z,22.17
2019-01-06T09:13:05.617Z,20.70
2019-01-06T09:15:58.029Z,21.23
2019-01-06T09:18:44.493Z,23.17
2019-01-06T09:21:32.516Z,23.67
2019-01-06T09:24:20.806Z,22.77
2019-01-06T09:27:24.426Z,21.43
2019-01-06T09:30:14.145Z,21.60
2019-01-06T09:33:16.066Z,20.37
2019-01-06T09:36:04.221Z,19.37
2019-01-06T09:39:02.547Z,19.20
2019-01-06T09:41:58.114Z,17.43
2019-01-06T09:44:56.556Z,18.20
2019-01-06T09:47:55.501Z,18.80
2019-01-06T09:50:47.717Z,16.10
2019-01-06T09:53:40.215Z,16.10
2019-01-06T09:56:28.256Z,16.67
2019-01-06T09:59:29.530Z,16.10
2019-01-06T10:02:17.517Z,13.07
2019-01-06T10:05:12.733Z,16.47
2019-01-06T10:08:17.534Z,15.67
2019-01-06T10:11:05.861Z,15.50
2019-01-06T10:14:02.689Z,13.57
2019-01-06T10:16:51.041Z,17.17
2019-01-06T10:19:45.127Z,18.30
2019-01-06T10:22:33.128Z,16.63
2019-01-06T10:25:25.626Z,14.53
2019-01-06T10:28:14.254Z,13.93
2019-01-06T10:31:02.384Z,16.33
2019-01-06T10:33:50.602Z,14.27
2019-01-06T10:36:43.857Z,15.73
2019-01-06T10:39:32.742Z,14.73
2019-01-06T10:42:23.540Z,15.03
2019-01-06T10:45:11.862Z,16.87
2019-01-06T10:48:10.352Z,16.93
2019-01-06T10:51:06.224Z,16.20
2019-01-06T10:54:11.167Z,15.53
2019-01-06T10:57:06.617Z,14.67
2019-01-06T10:59:59.177Z,16.13
2019-01-06T11:02:57.610Z,15.23
2019-01-06T11:05:45.724Z,15.43
2019-01-06T11:08:44.807Z,15.80
2019-01-06T11:11:49.656Z,15.10
2019-01-06T11:14:51.193Z,16.23
2019-01-06T11:17:40.552Z,14.77
2019-01-06T11:20:28.956Z,15.57
2019-01-06T11:23:30.485Z,14.80
2019-01-06T11:26:19.956Z,12.53
2019-01-06T11:29:15.234Z,13.63
2019-01-06T11:32:13.648Z,8.43
2019-01-06T11:35:01.793Z,9.10
2019-01-06T11:38:06.319Z,10.57
2019-01-06T11:41:13.903Z,6.23
2019-01-06T11:44:02.292Z,6.70
2019-01-06T11:46:57.677Z,6.20
2019-01-06T11:49:50.312Z,6.90
2019-01-06T11:52:38.502Z,6.10
2019-01-06T11:55:37.062Z,5.37
2019-01-06T11:58:26.593Z,6.77
2019-01-06T12:01:25.422Z,6.83
2019-01-06T12:04:21.150Z,5.73
2019-01-06T12:07:09.197Z,6.00
2019-01-06T12:09:57.181Z,6.93
2019-01-06T12:12:56.002Z,6.83
2019-01-06T12:15:46.303Z,5.83
2019-01-06T12:18:38.718Z,5.77
2019-01-06T12:21:27.409Z,7.23
2019-01-06T12:24:26.240Z,6.47
2019-01-06T12:27:19.284Z,7.03
2019-01-06T12:30:07.708Z,5.57
2019-01-06T12:32:56.225Z,4.73
2019-01-06T12:35:44.388Z,5.13
2019-01-06T12:38:40.496Z,7.50
2019-01-06T12:41:28.845Z,5.33
2019-01-06T12:44:24.887Z,5.70
2019-01-06T12:47:13.267Z,5.03
2019-01-06T12:50:05.678Z,5.30
2019-01-06T12:53:04.574Z,6.60
2019-01-06T12:55:53.964Z,4.93
2019-01-06T12:58:44.383Z,6.03
2019-01-06T13:01:36.281Z,4.67
2019-01-06T13:04:25.825Z,5.47
2019-01-06T13:07:20.083Z,2.97
2019-01-06T13:10:10.840Z,4.93
2019-01-06T13:13:02.678Z,3.90
2019-01-06T13:16:03.036Z,3.23
2019-01-06T13:19:06.629Z,5.30
2019-01-06T13:21:59.774Z,3.47
2019-01-06T13:24:49.072Z,3.40
2019-01-06T13:27:39.040Z,3.23
2019-01-06T13:30:30.897Z,2.53
2019-01-06T13:33:31.334Z,2.33
2019-01-06T13:36:31.515Z,3.30
2019-01-06T13:39:23.003Z,4.17
2019-01-06T13:42:16.476Z,2.63
2019-01-06T13:45:10.481Z,2.63
2019-01-06T13:48:02.658Z,3.67
2019-01-06T13:50:50.696Z,4.10
2019-01-06T13:53:38.750Z,2.43
2019-01-06T13:56:27.086Z,2.80
2019-01-06T13:59:16.830Z,2.63
2019-01-06T14:02:18.879Z,3.87
2019-01-06T14:05:08.796Z,4.03
2019-01-06T14:07:56.851Z,3.53
2019-01-06T14:10:45.127Z,3.27
2019-01-06T14:13:43.761Z,2.83
2019-01-06T14:16:32.209Z,3.07
2019-01-06T14:19:25.127Z,2.30
2019-01-06T14:22:23.781Z,3.53
2019-01-06T14:25:31.951Z,2.77
2019-01-06T14:28:25.517Z,3.40
2019-01-06T14:31:14.393Z,2.37
2019-01-06T14:34:02.419Z,3.47
2019-01-06T14:36:51.980Z,3.83
2019-01-06T14:39:36.719Z,2.93
2019-01-06T14:42:25.077Z,2.47
2019-01-06T14:45:17.502Z,3.00
2019-01-06T14:48:10.019Z,3.07
2019-01-06T14:51:05.631Z,2.30
2019-01-06T14:53:54.236Z,3.13
2019-01-06T14:57:01.869Z,3.30
2019-01-06T14:59:55.832Z,4.97
2019-01-06T15:02:43.755Z,4.83
2019-01-06T15:05:30.367Z,4.23
2019-01-06T15:08:38.399Z,5.97
2019-01-06T15:11:26.339Z,4.27
2019-01-06T15:14:28.005Z,5.77
2019-01-06T15:17:16.118Z,6.80
2019-01-06T15:20:23.730Z,7.10
2019-01-06T15:23:12.095Z,7.07
2019-01-06T15:26:01.890Z,5.17
2019-01-06T15:28:54.369Z,5.40
2019-01-06T15:31:45.698Z,4.67
2019-01-06T15:34:38.113Z,4.93
2019-01-06T15:37:26.827Z,5.80
2019-01-06T15:40:28.429Z,4.97
2019-01-06T15:43:16.515Z,3.67
2019-01-06T15:46:02.153Z,5.27
2019-01-06T15:48:51.511Z,3.63
2019-01-06T15:51:43.831Z,3.07
2019-01-06T15:54:31.876Z,5.50
2019-01-06T15:57:19.989Z,3.93
2019-01-06T16:00:09.376Z,4.87
2019-01-06T16:02:58.875Z,3.87
2019-01-06T16:05:55.001Z,5.03
2019-01-06T16:08:56.781Z,4.40
2019-01-06T16:11:52.021Z,4.70
2019-01-06T16:14:53.770Z,5.37
2019-01-06T16:18:01.785Z,5.37
2019-01-06T16:21:06.197Z,5.10
2019-01-06T16:24:09.224Z,5.30
2019-01-06T16:26:58.670Z,5.97
2019-01-06T16:29:48.259Z,6.87
2019-01-06T16:32:50.076Z,7.37
2019-01-06T16:35:57.996Z,7.80
2019-01-06T16:39:01.790Z,6.87
2019-01-06T16:41:49.747Z,6.30
2019-01-06T16:44:48.274Z,6.00
2019-01-06T16:47:50.003Z,5.83
2019-01-06T16:50:38.217Z,5.50
2019-01-06T16:53:25.224Z,5.63
2019-01-06T16:56:16.749Z,5.23
2019-01-06T16:59:15.600Z,6.50
2019-01-06T17:02:14.730Z,6.13
2019-01-06T17:05:05.826Z,6.03
2019-01-06T17:07:54.019Z,7.60
2019-01-06T17:10:42.272Z,10.70
2019-01-06T17:13:41.063Z,10.77
2019-01-06T17:16:25.764Z,7.43
2019-01-06T17:19:14.035Z,7.60
2019-01-06T17:22:02.940Z,6.20
2019-01-06T17:24:58.622Z,6.20
2019-01-06T17:27:47.296Z,5.07
2019-01-06T17:30:39.512Z,6.63
2019-01-06T17:33:40.975Z,5.63
2019-01-06T17:36:28.065Z,6.23
2019-01-06T17:39:20.532Z,6.10
2019-01-06T17:42:09.026Z,7.67
2019-01-06T17:44:57.273Z,6.13
2019-01-06T17:47:49.662Z,6.70
2019-01-06T17:50:38.186Z,6.03
2019-01-06T17:53:26.578Z,6.00
2019-01-06T17:56:14.956Z,6.13
2019-01-06T17:59:03.542Z,7.13
2019-01-06T18:01:52.086Z,7.27
2019-01-06T18:04:47.824Z,7.47
2019-01-06T18:07:39.974Z,6.80
2019-01-06T18:10:32.571Z,7.23
2019-01-06T18:13:22.041Z,7.73
2019-01-06T18:16:20.595Z,8.00
2019-01-06T18:19:16.112Z,7.80
2019-01-06T18:22:20.771Z,7.70
2019-01-06T18:25:09.321Z,7.53
2019-01-06T18:27:57.368Z,8.50
2019-01-06T18:30:45.442Z,7.90
2019-01-06T18:33:53.054Z,8.43
2019-01-06T18:36:57.704Z,8.50
2019-01-06T18:39:52.944Z,8.10
2019-01-06T18:42:42.675Z,8.03
2019-01-06T18:45:35.201Z,8.13
2019-01-06T18:48:30.626Z,8.90
2019-01-06T18:51:19.359Z,8.13
2019-01-06T18:54:08.975Z,9.13
2019-01-06T18:57:07.448Z,8.43
2019-01-06T18:59:59.802Z,10.70
2019-01-06T19:03:04.688Z,10.70
2019-01-06T19:06:09.970Z,9.53
2019-01-06T19:08:58.286Z,10.17
2019-01-06T19:12:14.669Z,11.80
2019-01-06T19:15:14.383Z,10.37
2019-01-06T19:18:09.762Z,18.83
2019-01-06T19:20:57.812Z,15.40
2019-01-06T19:23:56.294Z,12.83
2019-01-06T19:26:44.329Z,12.73
2019-01-06T19:29:43.538Z,14.07
2019-01-06T19:32:42.293Z,11.57
2019-01-06T19:35:43.855Z,12.90
2019-01-06T19:38:31.909Z,15.07
2019-01-06T19:41:46.491Z,14.10
2019-01-06T19:44:42.284Z,14.67
2019-01-06T19:47:37.935Z,14.77
2019-01-06T19:50:39.687Z,15.63
2019-01-06T19:53:27.420Z,14.00
2019-01-06T19:56:16.830Z,12.23
2019-01-06T19:59:05.121Z,12.40
2019-01-06T20:02:09.702Z,11.30
2019-01-06T20:04:57.386Z,10.57
2019-01-06T20:07:46.846Z,10.60
2019-01-06T20:10:34.928Z,9.27
2019-01-06T20:13:22.963Z,10.67
2019-01-06T20:16:10.917Z,11.27
2019-01-06T20:19:00.294Z,11.13
2019-01-06T20:21:48.638Z,11.03
2019-01-06T20:24:36.714Z,10.57
2019-01-06T20:27:20.722Z,11.03
2019-01-06T20:30:19.481Z,11.00
2019-01-06T20:33:07.384Z,13.07
2019-01-06T20:36:02.730Z,12.80
2019-01-06T20:39:01.224Z,11.37
2019-01-06T20:41:49.268Z,11.57
2019-01-06T20:44:50.824Z,11.73
2019-01-06T20:47:49.305Z,12.23
2019-01-06T20:50:44.474Z,11.77
2019-01-06T20:53:40.172Z,12.20
2019-01-06T20:56:42.369Z,11.40
2019-01-06T20:59:30.400Z,10.90
2019-01-06T21:02:22.658Z,12.57
2019-01-06T21:05:10.699Z,12.67
2019-01-06T21:08:02.816Z,11.57
2019-01-06T21:10:47.061Z,11.87
2019-01-06T21:13:36.662Z,11.47
2019-01-06T21:16:25.252Z,12.37
2019-01-06T21:19:10.325Z,11.67
2019-01-06T21:22:00.206Z,12.00
2019-01-06T21:24:52.827Z,12.03
2019-01-06T21:27:41.218Z,12.30
2019-01-06T21:30:39.682Z,13.17
2019-01-06T21:33:28.124Z,11.77
2019-01-06T21:36:20.450Z,11.77
2019-01-06T21:39:08.902Z,18.67
2019-01-06T21:41:58.335Z,17.97
2019-01-06T21:44:56.750Z,19.60
2019-01-06T21:47:44.798Z,18.30
2019-01-06T21:50:36.992Z,18.07
2019-01-06T21:53:41.765Z,17.60
2019-01-06T21:56:49.467Z,14.67
2019-01-06T21:59:48.048Z,15.37
2019-01-06T22:02:29.615Z,16.23
2019-01-06T22:05:17.957Z,17.63
2019-01-06T22:08:06.001Z,14.77
2019-01-06T22:11:10.494Z,18.00
2019-01-06T22:13:58.795Z,17.10
2019-01-06T22:16:50.978Z,17.27
2019-01-06T22:19:52.814Z,20.30
2019-01-06T22:22:57.320Z,19.13
2019-01-06T22:25:55.780Z,20.03
2019-01-06T22:28:57.234Z,18.90
2019-01-06T22:31:46.001Z,16.70
2019-01-06T22:34:47.512Z,14.63
2019-01-06T22:37:36.982Z,13.43
2019-01-06T22:40:29.561Z,13.40
2019-01-06T22:43:17.602Z,10.67
2019-01-06T22:46:19.266Z,10.77
2019-01-06T22:49:07.817Z,11.60
2019-01-06T22:51:55.916Z,12.17
2019-01-06T22:54:48.229Z,12.80
2019-01-06T22:57:36.729Z,12.47
2019-01-06T23:00:37.687Z,12.33
2019-01-06T23:03:36.362Z,13.40
2019-01-06T23:06:26.025Z,13.30
2019-01-06T23:09:27.454Z,12.23
2019-01-06T23:12:16.977Z,13.17
2019-01-06T23:15:05.359Z,13.27
2019-01-06T23:17:53.576Z,12.57
2019-01-06T23:20:41.695Z,13.43
2019-01-06T23:23:49.394Z,13.33
2019-01-06T23:26:47.808Z,13.30
2019-01-06T23:29:35.785Z,12.57
2019-01-06T23:32:25.247Z,13.53
2019-01-06T23:35:13.484Z,14.57
2019-01-06T23:38:08.662Z,13.90
2019-01-06T23:40:56.942Z,12.90
2019-01-06T23:43:51.056Z,13.73
2019-01-06T23:46:49.828Z,14.20
2019-01-06T23:49:38.019Z,13.97
2019-01-06T23:52:27.426Z,13.43
2019-01-06T23:55:15.445Z,14.73
2019-01-06T23:58:03.480Z,13.97
